Main page
METAR-TAF:

METAR-TAF

Airports :

Conceição do Araguaia Airport

Conceição do Araguaia, Pará, Brazil

latitude: 08-15S, longitude: 049-17W, elevation: 157 m

Current weather observation

The report was made 4 hours and 13 minutes ago, at 19:00 UTC
Wind 6 kt from the Northwest
Temperature 32°C
Humidity 52%
Pressure 1010 hPa
Visibility 10 km or more
Scattered clouds at a height of 2000 ft

METAR: SBAA 201900Z 32006KT 9999 SCT020 32/21 Q1010

Time: 20:13 (23:13 UTC)


TAF: missing

Weather observations and forecasts of more than 4000 airports (METAR and TAF reports).

The available stations are represented by yellow and red dots on the map.

Hover mouse over dot to see the name of the station.

Then click to see weather observations and forecasts.

To change the map : click on the green buttons with a black cross to zoom in, on the green button with a dash to zoom out, or on the green arrows for adjacent maps.


METAR-TAF: